createdAt,value
2017-03-02T00:00:27.092Z,945
2017-03-02T00:01:23.693Z,945
2017-03-02T00:02:37.462Z,944
2017-03-02T00:03:21.837Z,944
2017-03-02T00:04:26.680Z,944
2017-03-02T00:05:20.755Z,944
2017-03-02T00:06:22.267Z,944
2017-03-02T00:07:21.118Z,944
2017-03-02T00:08:26.709Z,944
2017-03-02T00:09:25.011Z,944
2017-03-02T00:10:22.604Z,944
2017-03-02T00:11:23.581Z,944
2017-03-02T00:12:31.776Z,944
2017-03-02T00:13:26.176Z,944
2017-03-02T00:14:26.195Z,944
2017-03-02T00:15:23.496Z,944
2017-03-02T00:16:26.362Z,945
2017-03-02T00:17:25.909Z,944
2017-03-02T00:18:32.028Z,944
2017-03-02T00:19:23.448Z,944
2017-03-02T00:20:26.443Z,944
2017-03-02T00:22:32.016Z,944
2017-03-02T00:23:31.854Z,944
2017-03-02T00:24:22.764Z,944
2017-03-02T00:25:28.009Z,944
2017-03-02T00:26:37.209Z,945
2017-03-02T00:27:34.841Z,944
2017-03-02T00:28:35.954Z,944
2017-03-02T00:29:36.168Z,944
2017-03-02T00:30:26.213Z,944
2017-03-02T00:31:26.770Z,944
2017-03-02T00:32:26.438Z,944
2017-03-02T00:33:31.893Z,944
2017-03-02T00:34:32.023Z,944
2017-03-02T00:35:26.977Z,944
2017-03-02T00:36:27.429Z,944
2017-03-02T00:37:27.563Z,944
2017-03-02T00:38:27.624Z,945
2017-03-02T00:39:22.578Z,944
2017-03-02T00:40:29.593Z,944
2017-03-02T00:41:32.460Z,944
2017-03-02T00:42:32.501Z,945
2017-03-02T00:43:23.219Z,945
2017-03-02T00:44:22.713Z,944
2017-03-02T00:45:35.238Z,944
2017-03-02T00:46:25.884Z,945
2017-03-02T00:47:26.534Z,945
2017-03-02T00:48:22.361Z,945
2017-03-02T00:49:22.392Z,945
2017-03-02T00:50:22.991Z,945
2017-03-02T00:51:23.865Z,945
2017-03-02T00:52:31.914Z,945
2017-03-02T00:53:31.922Z,945
2017-03-02T00:54:32.083Z,945
2017-03-02T00:55:21.856Z,945
2017-03-02T00:56:31.023Z,945
2017-03-02T00:57:36.134Z,945
2017-03-02T00:58:26.828Z,945
2017-03-02T00:59:31.948Z,944
2017-03-02T01:00:32.008Z,944
2017-03-02T01:01:21.621Z,944
2017-03-02T01:02:17.119Z,944
2017-03-02T01:03:36.765Z,944
2017-03-02T01:04:28.587Z,944
2017-03-02T01:05:23.142Z,944
2017-03-02T01:06:26.156Z,945
2017-03-02T01:07:21.975Z,945
2017-03-02T01:08:22.425Z,945
2017-03-02T01:09:27.046Z,944
2017-03-02T01:10:36.266Z,944
2017-03-02T01:11:21.922Z,944
2017-03-02T01:12:36.515Z,944
2017-03-02T01:13:32.276Z,944
2017-03-02T01:14:26.312Z,944
2017-03-02T01:15:22.857Z,945
2017-03-02T01:16:33.376Z,944
2017-03-02T01:17:29.068Z,945
2017-03-02T01:18:30.533Z,945
2017-03-02T01:19:29.257Z,944
2017-03-02T01:20:37.525Z,945
2017-03-02T01:21:25.654Z,944
2017-03-02T01:22:22.429Z,944
2017-03-02T01:23:35.767Z,945
2017-03-02T01:24:25.011Z,945
2017-03-02T01:25:20.979Z,945
2017-03-02T01:26:24.939Z,944
2017-03-02T01:27:26.300Z,944
2017-03-02T01:28:21.743Z,945
2017-03-02T01:29:23.056Z,945
2017-03-02T01:30:21.213Z,944
2017-03-02T01:31:20.493Z,944
2017-03-02T01:32:16.205Z,944
2017-03-02T01:33:29.491Z,944
2017-03-02T01:34:20.642Z,944
2017-03-02T01:35:34.116Z,944
2017-03-02T01:36:21.111Z,944
2017-03-02T01:37:32.391Z,944
2017-03-02T01:38:24.080Z,944
2017-03-02T01:39:25.066Z,945
2017-03-02T01:40:16.012Z,944
2017-03-02T01:41:30.150Z,944
2017-03-02T01:42:23.428Z,944
2017-03-02T01:43:24.094Z,944
2017-03-02T01:44:27.932Z,944
2017-03-02T01:45:33.313Z,944
2017-03-02T01:46:26.906Z,945
2017-03-02T01:47:32.164Z,945
2017-03-02T01:48:29.004Z,945
2017-03-02T01:49:32.141Z,945
2017-03-02T01:50:45.168Z,944
2017-03-02T01:51:33.925Z,944
2017-03-02T01:52:23.245Z,944
2017-03-02T01:53:30.350Z,944
2017-03-02T01:54:26.293Z,945
2017-03-02T01:55:22.909Z,945
2017-03-02T01:56:27.169Z,944
2017-03-02T01:57:22.369Z,945
2017-03-02T01:58:23.007Z,944
2017-03-02T01:59:27.709Z,945
2017-03-02T02:00:34.029Z,945
2017-03-02T02:01:23.961Z,945
2017-03-02T02:02:23.588Z,945
2017-03-02T02:03:37.098Z,945
2017-03-02T02:04:22.188Z,944
2017-03-02T02:05:26.303Z,945
2017-03-02T02:06:27.058Z,945
2017-03-02T02:07:26.368Z,945
2017-03-02T02:08:32.522Z,944
2017-03-02T02:09:21.653Z,944
2017-03-02T02:10:27.549Z,944
2017-03-02T02:11:23.198Z,945
2017-03-02T02:12:22.834Z,945
2017-03-02T02:13:26.898Z,944
2017-03-02T02:14:30.327Z,945
2017-03-02T02:15:20.420Z,944
2017-03-02T02:16:26.275Z,945
2017-03-02T02:17:27.260Z,945
2017-03-02T02:18:28.397Z,945
2017-03-02T02:19:26.309Z,945
2017-03-02T02:20:26.698Z,944
2017-03-02T02:21:23.487Z,945
2017-03-02T02:22:18.347Z,945
2017-03-02T02:23:22.202Z,944
2017-03-02T02:24:30.317Z,944
2017-03-02T02:25:26.980Z,945
2017-03-02T02:26:26.475Z,944
2017-03-02T02:27:22.913Z,945
2017-03-02T02:28:21.121Z,944
2017-03-02T02:29:26.201Z,944
2017-03-02T02:30:31.053Z,945
2017-03-02T02:31:22.647Z,945
2017-03-02T02:32:24.449Z,945
2017-03-02T02:33:26.388Z,945
2017-03-02T02:34:20.972Z,945
2017-03-02T02:35:30.844Z,945
2017-03-02T02:36:32.325Z,945
2017-03-02T02:37:27.369Z,945
2017-03-02T02:38:29.358Z,945
2017-03-02T02:39:35.399Z,945
2017-03-02T02:40:26.049Z,945
2017-03-02T02:41:24.397Z,945
2017-03-02T02:42:27.518Z,945
2017-03-02T02:43:40.037Z,945
2017-03-02T02:44:22.543Z,945
2017-03-02T02:45:34.492Z,945
2017-03-02T02:46:23.816Z,945
2017-03-02T02:47:22.189Z,945
2017-03-02T02:48:23.162Z,945
2017-03-02T02:49:31.118Z,945
2017-03-02T02:50:25.145Z,945
2017-03-02T02:51:21.534Z,945
2017-03-02T02:52:22.666Z,945
2017-03-02T02:53:28.097Z,945
2017-03-02T02:54:24.288Z,945
2017-03-02T02:55:28.485Z,945
2017-03-02T02:56:26.393Z,945
2017-03-02T02:57:32.249Z,945
2017-03-02T02:58:27.156Z,945
2017-03-02T02:59:26.757Z,945
2017-03-02T03:00:22.758Z,945
2017-03-02T03:01:32.532Z,945
2017-03-02T03:02:28.611Z,945
2017-03-02T03:03:23.610Z,945
2017-03-02T03:04:32.149Z,945
2017-03-02T03:05:32.990Z,945
2017-03-02T03:06:34.240Z,945
2017-03-02T03:07:28.556Z,945
2017-03-02T03:08:26.662Z,945
2017-03-02T03:09:24.207Z,945
2017-03-02T03:10:21.933Z,945
2017-03-02T03:11:28.498Z,945
2017-03-02T03:12:32.077Z,945
2017-03-02T03:13:27.166Z,945
2017-03-02T03:14:23.463Z,945
2017-03-02T03:15:32.111Z,945
2017-03-02T03:16:22.411Z,945
2017-03-02T03:17:33.998Z,945
2017-03-02T03:18:23.329Z,945
2017-03-02T03:19:35.609Z,945
2017-03-02T03:20:24.384Z,945
2017-03-02T03:21:23.821Z,945
2017-03-02T03:22:26.585Z,945
2017-03-02T03:23:21.154Z,945
2017-03-02T03:24:22.334Z,945
2017-03-02T03:25:36.441Z,945
2017-03-02T03:26:20.773Z,945
2017-03-02T03:27:28.589Z,945
2017-03-02T03:28:32.097Z,945
2017-03-02T03:29:21.150Z,945
2017-03-02T03:30:23.314Z,945
2017-03-02T03:31:36.186Z,945
2017-03-02T03:32:37.144Z,945
2017-03-02T03:33:23.822Z,945
2017-03-02T03:34:22.600Z,945
2017-03-02T03:35:29.204Z,945
2017-03-02T03:36:26.606Z,945
2017-03-02T03:37:26.935Z,945
2017-03-02T03:38:23.294Z,945
2017-03-02T03:39:25.015Z,945
2017-03-02T03:40:23.392Z,945
2017-03-02T03:41:23.033Z,945
2017-03-02T03:42:31.212Z,945
2017-03-02T03:43:36.722Z,945
2017-03-02T03:44:27.238Z,945
2017-03-02T03:45:32.111Z,945
2017-03-02T03:46:22.227Z,945
2017-03-02T03:47:32.271Z,945
2017-03-02T03:48:22.812Z,945
2017-03-02T03:49:27.677Z,945
2017-03-02T03:50:24.825Z,945
2017-03-02T03:51:24.073Z,945
2017-03-02T03:52:26.556Z,945
2017-03-02T03:53:25.957Z,945
2017-03-02T03:54:23.375Z,945
2017-03-02T03:55:27.060Z,945
2017-03-02T03:56:22.502Z,945
2017-03-02T03:57:32.108Z,945
2017-03-02T03:58:32.101Z,945
2017-03-02T03:59:32.706Z,945
2017-03-02T04:00:23.571Z,945
2017-03-02T04:01:30.259Z,945
2017-03-02T04:02:31.018Z,945
2017-03-02T04:03:22.296Z,945
2017-03-02T04:04:27.030Z,945
2017-03-02T04:05:18.559Z,945
2017-03-02T04:06:20.691Z,945
2017-03-02T04:07:21.933Z,945
2017-03-02T04:08:26.643Z,945
2017-03-02T04:09:32.222Z,945
2017-03-02T04:10:23.306Z,945
2017-03-02T04:11:26.313Z,945
2017-03-02T04:12:32.292Z,945
2017-03-02T04:13:24.860Z,945
2017-03-02T04:14:31.507Z,945
2017-03-02T04:15:22.872Z,945
2017-03-02T04:16:27.952Z,945
2017-03-02T04:17:24.145Z,945
2017-03-02T04:18:25.000Z,945
2017-03-02T04:19:29.968Z,945
2017-03-02T04:20:27.507Z,945
2017-03-02T04:21:23.611Z,945
2017-03-02T04:22:32.789Z,945
2017-03-02T04:23:28.111Z,945
2017-03-02T04:24:24.608Z,945
2017-03-02T04:25:27.973Z,945
2017-03-02T04:26:35.041Z,945
2017-03-02T04:27:34.787Z,945
2017-03-02T04:28:29.041Z,945
2017-03-02T04:29:28.731Z,945
2017-03-02T04:30:22.674Z,945
2017-03-02T04:31:26.602Z,945
2017-03-02T04:32:21.866Z,945
2017-03-02T04:33:31.260Z,945
2017-03-02T04:34:28.245Z,945
2017-03-02T04:35:25.164Z,945
2017-03-02T04:36:29.733Z,945
2017-03-02T04:37:30.592Z,945
2017-03-02T04:38:26.480Z,945
2017-03-02T04:39:22.644Z,945
2017-03-02T04:40:23.788Z,945
2017-03-02T04:41:19.505Z,945
2017-03-02T04:42:37.021Z,945
2017-03-02T04:43:26.665Z,945
2017-03-02T04:44:31.878Z,945
2017-03-02T04:45:32.373Z,945
2017-03-02T04:46:26.443Z,945
2017-03-02T04:47:26.587Z,945
2017-03-02T04:48:23.697Z,945
2017-03-02T04:49:22.639Z,945
2017-03-02T04:50:24.433Z,945
2017-03-02T04:51:17.665Z,945
2017-03-02T04:52:26.395Z,945
2017-03-02T04:53:32.125Z,945
2017-03-02T04:54:31.008Z,945
2017-03-02T04:55:26.744Z,945
2017-03-02T04:56:28.345Z,945
2017-03-02T04:57:33.296Z,945
2017-03-02T04:58:30.749Z,945
2017-03-02T04:59:22.177Z,945
2017-03-02T05:00:26.853Z,945
2017-03-02T05:01:24.708Z,945
2017-03-02T05:02:26.278Z,945
2017-03-02T05:03:23.133Z,945
2017-03-02T05:04:39.285Z,945
2017-03-02T05:05:23.610Z,945
2017-03-02T05:06:22.417Z,945
2017-03-02T05:07:26.605Z,945
2017-03-02T05:08:36.753Z,945
2017-03-02T05:09:20.508Z,945
2017-03-02T05:10:23.545Z,945
2017-03-02T05:11:23.033Z,945
2017-03-02T05:12:29.399Z,945
2017-03-02T05:13:23.609Z,945
2017-03-02T05:14:29.574Z,945
2017-03-02T05:15:29.033Z,945
2017-03-02T05:16:22.163Z,945
2017-03-02T05:17:23.846Z,945
2017-03-02T05:18:22.819Z,945
2017-03-02T05:19:23.758Z,945
2017-03-02T05:20:31.485Z,945
2017-03-02T05:21:22.643Z,945
2017-03-02T05:22:25.459Z,945
2017-03-02T05:23:26.817Z,945
2017-03-02T05:24:27.042Z,945
2017-03-02T05:25:28.108Z,945
2017-03-02T05:26:31.288Z,945
2017-03-02T05:27:27.606Z,945
2017-03-02T05:28:22.406Z,945
2017-03-02T05:29:26.372Z,945
2017-03-02T05:30:37.198Z,945
2017-03-02T05:31:20.831Z,945
2017-03-02T05:32:26.491Z,945
2017-03-02T05:33:20.746Z,945
2017-03-02T05:34:32.198Z,945
2017-03-02T05:35:36.934Z,945
2017-03-02T05:36:22.054Z,946
2017-03-02T05:37:32.377Z,945
2017-03-02T05:38:25.589Z,945
2017-03-02T05:39:22.383Z,945
2017-03-02T05:40:24.297Z,946
2017-03-02T05:41:32.144Z,946
2017-03-02T05:42:23.370Z,945
2017-03-02T05:43:31.068Z,946
2017-03-02T05:44:17.891Z,946
2017-03-02T05:45:31.976Z,946
2017-03-02T05:46:22.124Z,946
2017-03-02T05:47:37.421Z,946
2017-03-02T05:48:24.928Z,946
2017-03-02T05:49:20.587Z,946
2017-03-02T05:50:20.837Z,946
2017-03-02T05:51:23.420Z,946
2017-03-02T05:52:27.416Z,946
2017-03-02T05:54:21.929Z,946
2017-03-02T05:55:29.731Z,946
2017-03-02T05:56:30.751Z,946
2017-03-02T05:57:37.803Z,946
2017-03-02T05:58:26.276Z,946
2017-03-02T05:59:27.190Z,946
2017-03-02T06:00:26.663Z,946
2017-03-02T06:01:17.979Z,946
2017-03-02T06:02:17.177Z,946
2017-03-02T06:03:29.604Z,946
2017-03-02T06:04:33.358Z,946
2017-03-02T06:05:36.794Z,946
2017-03-02T06:06:29.664Z,946
2017-03-02T06:07:24.310Z,946
2017-03-02T06:08:32.483Z,946
2017-03-02T06:09:32.369Z,946
2017-03-02T06:10:29.516Z,946
2017-03-02T06:11:28.341Z,946
2017-03-02T06:12:32.715Z,946
2017-03-02T06:13:23.078Z,946
2017-03-02T06:14:24.405Z,946
2017-03-02T06:15:32.448Z,946
2017-03-02T06:16:32.115Z,946
2017-03-02T06:17:26.448Z,946
2017-03-02T06:18:37.066Z,946
2017-03-02T06:19:26.549Z,946
2017-03-02T06:20:36.996Z,946
2017-03-02T06:21:33.936Z,946
2017-03-02T06:22:32.269Z,946
2017-03-02T06:23:23.269Z,946
2017-03-02T06:24:33.153Z,946
2017-03-02T06:25:31.645Z,946
2017-03-02T06:26:33.322Z,946
2017-03-02T06:27:23.202Z,946
2017-03-02T06:28:24.556Z,946
2017-03-02T06:29:24.131Z,946
2017-03-02T06:30:24.564Z,946
2017-03-02T06:31:16.961Z,946
2017-03-02T06:32:16.097Z,946
2017-03-02T06:33:18.964Z,946
2017-03-02T06:34:21.184Z,946
2017-03-02T06:35:27.879Z,946
2017-03-02T06:36:23.810Z,946
2017-03-02T06:37:23.665Z,946
2017-03-02T06:38:23.674Z,946
2017-03-02T06:39:23.131Z,946
2017-03-02T06:40:24.204Z,946
2017-03-02T06:41:21.022Z,946
2017-03-02T06:42:19.216Z,946
2017-03-02T06:43:18.921Z,946
2017-03-02T06:44:19.323Z,946
2017-03-02T06:45:23.241Z,946
2017-03-02T06:46:22.157Z,946
2017-03-02T06:47:21.349Z,946
2017-03-02T06:48:22.112Z,947
2017-03-02T06:49:21.310Z,946
2017-03-02T06:50:17.751Z,946
2017-03-02T06:51:17.408Z,946
2017-03-02T06:52:19.714Z,947
2017-03-02T06:53:23.325Z,947
2017-03-02T06:54:21.713Z,947
2017-03-02T06:55:23.078Z,947
2017-03-02T06:56:21.253Z,947
2017-03-02T06:57:22.409Z,947
2017-03-02T06:58:16.715Z,947
2017-03-02T06:59:26.216Z,947
2017-03-02T07:00:16.822Z,947
2017-03-02T07:01:24.441Z,947
2017-03-02T07:02:19.040Z,947
2017-03-02T07:03:19.548Z,947
2017-03-02T07:04:19.228Z,947
2017-03-02T07:05:21.211Z,947
2017-03-02T07:06:22.511Z,947
2017-03-02T07:07:27.394Z,947
2017-03-02T07:08:20.380Z,947
2017-03-02T07:09:24.034Z,947
2017-03-02T07:10:23.390Z,947
2017-03-02T07:11:22.103Z,947
2017-03-02T07:12:32.594Z,947
2017-03-02T07:13:20.624Z,947
2017-03-02T07:14:32.782Z,947
2017-03-02T07:15:30.865Z,947
2017-03-02T07:16:24.075Z,947
2017-03-02T07:17:22.224Z,947
2017-03-02T07:18:22.696Z,947
2017-03-02T07:19:26.950Z,947
2017-03-02T07:20:36.645Z,947
2017-03-02T07:21:27.236Z,947
2017-03-02T07:22:28.211Z,947
2017-03-02T07:23:24.256Z,947
2017-03-02T07:24:24.971Z,947
2017-03-02T07:25:24.473Z,947
2017-03-02T07:26:23.173Z,947
2017-03-02T07:27:22.191Z,947
2017-03-02T07:28:32.028Z,947
2017-03-02T07:29:25.608Z,947
2017-03-02T07:30:25.714Z,947
2017-03-02T07:31:25.773Z,947
2017-03-02T07:32:31.234Z,947
2017-03-02T07:33:37.878Z,947
2017-03-02T07:34:32.078Z,947
2017-03-02T07:36:27.334Z,947
2017-03-02T07:37:30.903Z,947
2017-03-02T07:38:36.362Z,947
2017-03-02T07:39:26.987Z,947
2017-03-02T07:40:26.346Z,947
2017-03-02T07:41:27.073Z,947
2017-03-02T07:42:25.682Z,947
2017-03-02T07:43:32.923Z,947
2017-03-02T07:44:31.666Z,947
2017-03-02T07:45:26.014Z,948
2017-03-02T07:46:36.444Z,948
2017-03-02T07:47:22.325Z,948
2017-03-02T07:48:22.710Z,948
2017-03-02T07:49:36.713Z,948
2017-03-02T07:50:27.077Z,948
2017-03-02T07:51:34.769Z,948
2017-03-02T07:52:30.912Z,948
2017-03-02T07:53:30.777Z,948
2017-03-02T07:54:22.343Z,948
2017-03-02T07:55:30.428Z,948
2017-03-02T07:56:22.905Z,948
2017-03-02T07:57:23.488Z,948
2017-03-02T07:58:24.976Z,948
2017-03-02T07:59:35.179Z,948
2017-03-02T08:00:29.283Z,948
2017-03-02T08:01:37.038Z,948
2017-03-02T08:02:38.472Z,948
2017-03-02T08:03:38.998Z,948
2017-03-02T08:04:36.618Z,948
2017-03-02T08:05:33.658Z,948
2017-03-02T08:06:22.882Z,948
2017-03-02T08:07:28.429Z,948
2017-03-02T08:08:28.893Z,948
2017-03-02T08:09:25.030Z,948
2017-03-02T08:10:24.835Z,948
2017-03-02T08:11:36.031Z,948
2017-03-02T08:12:29.585Z,948
2017-03-02T08:13:27.171Z,948
2017-03-02T08:14:29.810Z,948
2017-03-02T08:15:24.010Z,948
2017-03-02T08:16:26.586Z,948
2017-03-02T08:17:27.836Z,948
2017-03-02T08:18:36.839Z,948
2017-03-02T08:19:28.797Z,948
2017-03-02T08:20:29.565Z,949
2017-03-02T08:21:22.884Z,948
2017-03-02T08:22:23.086Z,948
2017-03-02T08:23:23.062Z,948
2017-03-02T08:24:32.698Z,948
2017-03-02T08:25:29.629Z,949
2017-03-02T08:26:32.926Z,949
2017-03-02T08:27:29.045Z,949
2017-03-02T08:28:32.149Z,949
2017-03-02T08:29:20.931Z,949
2017-03-02T08:30:35.448Z,949
2017-03-02T08:31:24.747Z,949
2017-03-02T08:32:29.990Z,949
2017-03-02T08:33:32.290Z,949
2017-03-02T08:34:32.038Z,949
2017-03-02T08:35:26.195Z,949
2017-03-02T08:36:32.106Z,949
2017-03-02T08:37:26.223Z,949
2017-03-02T08:39:28.360Z,949
2017-03-02T08:40:30.600Z,949
2017-03-02T08:41:32.295Z,949
2017-03-02T08:42:36.841Z,949
2017-03-02T08:43:32.882Z,949
2017-03-02T08:44:32.272Z,949
2017-03-02T08:45:27.461Z,949
2017-03-02T08:46:27.218Z,949
2017-03-02T08:47:27.150Z,949
2017-03-02T08:48:32.547Z,949
2017-03-02T08:49:29.664Z,949
2017-03-02T08:50:22.171Z,949
2017-03-02T08:51:23.473Z,949
2017-03-02T08:52:23.104Z,949
2017-03-02T08:53:23.156Z,949
2017-03-02T08:54:33.595Z,949
2017-03-02T08:55:24.584Z,949
2017-03-02T08:56:35.348Z,949
2017-03-02T08:57:22.272Z,949
2017-03-02T08:58:25.057Z,949
2017-03-02T08:59:29.682Z,949
2017-03-02T09:00:35.583Z,949
2017-03-02T09:01:29.561Z,949
2017-03-02T09:02:22.127Z,949
2017-03-02T09:03:30.171Z,949
2017-03-02T09:04:27.994Z,949
2017-03-02T09:05:35.917Z,949
2017-03-02T09:06:29.754Z,949
2017-03-02T09:07:28.034Z,949
2017-03-02T09:08:22.147Z,949
2017-03-02T09:09:36.895Z,949
2017-03-02T09:10:21.077Z,949
2017-03-02T09:11:29.795Z,949
2017-03-02T09:12:27.892Z,949
2017-03-02T09:13:30.651Z,949
2017-03-02T09:14:30.488Z,949
2017-03-02T09:15:28.922Z,949
2017-03-02T09:16:28.555Z,949
2017-03-02T09:17:27.489Z,949
2017-03-02T09:18:26.280Z,949
2017-03-02T09:19:27.402Z,949
2017-03-02T09:20:23.480Z,949
2017-03-02T09:21:30.478Z,949
2017-03-02T09:22:32.290Z,949
2017-03-02T09:23:32.046Z,949
2017-03-02T09:24:23.273Z,949
2017-03-02T09:26:23.699Z,949
2017-03-02T09:27:36.330Z,949
2017-03-02T09:28:26.037Z,949
2017-03-02T09:29:25.747Z,950
2017-03-02T09:30:24.526Z,950
2017-03-02T09:31:35.872Z,950
2017-03-02T09:32:29.042Z,950
2017-03-02T09:33:34.376Z,950
2017-03-02T09:34:27.247Z,950
2017-03-02T09:35:34.175Z,950
2017-03-02T09:36:30.452Z,950
2017-03-02T09:37:36.340Z,950
2017-03-02T09:38:25.322Z,950
2017-03-02T09:39:16.628Z,950
2017-03-02T09:40:27.889Z,950
2017-03-02T09:41:36.339Z,950
2017-03-02T09:42:22.657Z,950
2017-03-02T09:43:29.484Z,950
2017-03-02T09:44:23.881Z,950
2017-03-02T09:45:21.741Z,950
2017-03-02T09:46:30.262Z,950
2017-03-02T09:47:26.443Z,950
2017-03-02T09:48:32.669Z,950
2017-03-02T09:49:31.011Z,950
2017-03-02T09:50:30.121Z,950
2017-03-02T09:51:26.645Z,950
2017-03-02T09:52:26.585Z,950
2017-03-02T09:53:32.923Z,950
2017-03-02T09:55:21.843Z,950
2017-03-02T09:56:31.996Z,950
2017-03-02T09:57:32.020Z,950
2017-03-02T09:58:40.486Z,950
2017-03-02T09:59:24.527Z,950
2017-03-02T10:00:24.265Z,950
2017-03-02T10:01:31.901Z,950
2017-03-02T10:02:26.244Z,950
2017-03-02T10:03:34.484Z,950
2017-03-02T10:04:28.167Z,950
2017-03-02T10:05:32.738Z,950
2017-03-02T10:06:37.682Z,950
2017-03-02T10:07:32.044Z,950
2017-03-02T10:08:32.718Z,950
2017-03-02T10:09:32.059Z,950
2017-03-02T10:10:31.172Z,950
2017-03-02T10:11:41.431Z,950
2017-03-02T10:12:28.091Z,950
2017-03-02T10:13:42.940Z,950
2017-03-02T10:14:32.598Z,950
2017-03-02T10:15:27.838Z,950
2017-03-02T10:16:26.924Z,950
2017-03-02T10:17:22.177Z,950
2017-03-02T10:18:37.073Z,950
2017-03-02T10:19:30.507Z,950
2017-03-02T10:20:32.021Z,950
2017-03-02T10:21:29.050Z,950
2017-03-02T10:22:27.175Z,950
2017-03-02T10:23:26.321Z,950
2017-03-02T10:24:24.873Z,950
2017-03-02T10:25:34.118Z,950
2017-03-02T10:26:24.796Z,950
2017-03-02T10:27:25.118Z,950
2017-03-02T10:28:24.706Z,950
2017-03-02T10:29:26.080Z,951
2017-03-02T10:30:23.376Z,950
2017-03-02T10:31:32.121Z,951
2017-03-02T10:32:30.140Z,950
2017-03-02T10:33:33.820Z,950
2017-03-02T10:34:27.007Z,951
2017-03-02T10:35:22.148Z,950
2017-03-02T10:36:25.097Z,951
2017-03-02T10:37:30.009Z,951
2017-03-02T10:38:24.810Z,950
2017-03-02T10:39:16.783Z,951
2017-03-02T10:40:27.669Z,950
2017-03-02T10:41:37.777Z,951
2017-03-02T10:42:33.053Z,950
2017-03-02T10:43:35.093Z,951
2017-03-02T10:44:30.377Z,951
2017-03-02T10:45:36.215Z,950
2017-03-02T10:46:32.306Z,951
2017-03-02T10:47:33.385Z,951
2017-03-02T10:48:29.646Z,951
2017-03-02T10:49:28.613Z,951
2017-03-02T10:50:24.282Z,951
2017-03-02T10:51:30.919Z,951
2017-03-02T10:52:25.134Z,951
2017-03-02T10:53:31.496Z,951
2017-03-02T10:54:26.200Z,951
2017-03-02T10:55:31.166Z,951
2017-03-02T10:56:27.389Z,951
2017-03-02T10:57:33.310Z,951
2017-03-02T10:58:26.779Z,951
2017-03-02T10:59:17.090Z,951
2017-03-02T11:00:25.041Z,951
2017-03-02T11:01:46.486Z,951
2017-03-02T11:02:37.041Z,951
2017-03-02T11:03:25.843Z,951
2017-03-02T11:04:30.518Z,951
2017-03-02T11:05:37.135Z,951
2017-03-02T11:06:26.198Z,951
2017-03-02T11:07:27.146Z,951
2017-03-02T11:08:32.819Z,951
2017-03-02T11:09:29.094Z,951
2017-03-02T11:10:30.471Z,951
2017-03-02T11:11:26.269Z,951
2017-03-02T11:12:22.509Z,951
2017-03-02T11:13:27.250Z,951
2017-03-02T11:14:27.335Z,951
2017-03-02T11:15:26.922Z,951
2017-03-02T11:16:27.258Z,951
2017-03-02T11:17:22.589Z,951
2017-03-02T11:18:32.960Z,951
2017-03-02T11:19:32.443Z,951
2017-03-02T11:20:27.478Z,951
2017-03-02T11:21:32.362Z,951
2017-03-02T11:22:30.947Z,951
2017-03-02T11:23:26.456Z,951
2017-03-02T11:24:37.446Z,951
2017-03-02T11:25:37.474Z,951
2017-03-02T11:26:21.830Z,951
2017-03-02T11:27:32.237Z,951
2017-03-02T11:28:40.836Z,951
2017-03-02T11:29:30.890Z,951
2017-03-02T11:31:28.324Z,951
2017-03-02T11:32:32.021Z,951
2017-03-02T11:33:30.410Z,951
2017-03-02T11:34:31.114Z,951
2017-03-02T11:35:29.433Z,951
2017-03-02T11:36:32.427Z,951
2017-03-02T11:37:33.621Z,951
2017-03-02T11:38:26.681Z,951
2017-03-02T11:39:20.527Z,951
2017-03-02T11:40:38.775Z,951
2017-03-02T11:41:27.355Z,951
2017-03-02T11:42:24.203Z,951
2017-03-02T11:43:30.225Z,951
2017-03-02T11:44:27.380Z,951
2017-03-02T11:45:29.269Z,951
2017-03-02T11:46:37.783Z,951
2017-03-02T11:47:26.831Z,951
2017-03-02T11:48:22.806Z,951
2017-03-02T11:49:31.026Z,951
2017-03-02T11:50:36.284Z,951
2017-03-02T11:51:25.687Z,951
2017-03-02T11:52:27.916Z,951
2017-03-02T11:53:32.489Z,951
2017-03-02T11:54:36.912Z,951
2017-03-02T11:55:34.673Z,951
2017-03-02T11:56:35.702Z,951
2017-03-02T11:57:28.218Z,951
2017-03-02T11:58:36.835Z,951
2017-03-02T11:59:25.250Z,951
2017-03-02T12:00:22.096Z,951
2017-03-02T12:01:36.009Z,951
2017-03-02T12:02:26.468Z,951
2017-03-02T12:03:31.946Z,951
2017-03-02T12:04:32.806Z,951
2017-03-02T12:05:31.202Z,951
2017-03-02T12:06:26.596Z,951
2017-03-02T12:07:36.972Z,951
2017-03-02T12:08:27.095Z,951
2017-03-02T12:09:32.063Z,951
2017-03-02T12:10:22.813Z,951
2017-03-02T12:11:27.871Z,951
2017-03-02T12:12:37.085Z,951
2017-03-02T12:13:32.656Z,951
2017-03-02T12:14:27.971Z,951
2017-03-02T12:15:32.476Z,951
2017-03-02T12:16:24.948Z,951
2017-03-02T12:17:34.627Z,951
2017-03-02T12:18:29.583Z,951
2017-03-02T12:19:25.192Z,951
2017-03-02T12:20:24.199Z,951
2017-03-02T12:21:37.605Z,951
2017-03-02T12:22:31.187Z,951
2017-03-02T12:23:40.235Z,951
2017-03-02T12:24:29.656Z,951
2017-03-02T12:25:31.024Z,951
2017-03-02T12:26:26.495Z,951
2017-03-02T12:27:22.177Z,951
2017-03-02T12:28:32.528Z,951
2017-03-02T12:29:32.450Z,951
2017-03-02T12:30:26.380Z,951
2017-03-02T12:31:24.218Z,951
2017-03-02T12:32:26.965Z,951
2017-03-02T12:33:23.910Z,951
2017-03-02T12:34:22.106Z,951
2017-03-02T12:35:26.493Z,951
2017-03-02T12:36:32.217Z,951
2017-03-02T12:37:26.766Z,951
2017-03-02T12:38:32.284Z,951
2017-03-02T12:39:22.316Z,951
2017-03-02T12:40:32.257Z,951
2017-03-02T12:41:32.250Z,951
2017-03-02T12:42:36.199Z,951
2017-03-02T12:43:29.450Z,951
2017-03-02T12:44:33.490Z,951
2017-03-02T12:45:26.877Z,951
2017-03-02T12:46:32.304Z,951
2017-03-02T12:47:26.397Z,951
2017-03-02T12:48:32.111Z,951
2017-03-02T12:49:41.860Z,951
2017-03-02T12:50:42.878Z,951
2017-03-02T12:51:25.709Z,951
2017-03-02T12:52:35.174Z,951
2017-03-02T12:53:24.727Z,951
2017-03-02T12:54:37.094Z,951
2017-03-02T12:55:27.420Z,951
2017-03-02T12:56:25.626Z,951
2017-03-02T12:57:35.276Z,951
2017-03-02T12:58:29.103Z,951
2017-03-02T12:59:23.279Z,951
2017-03-02T13:00:27.342Z,951
2017-03-02T13:01:32.607Z,951
2017-03-02T13:02:29.721Z,951
2017-03-02T13:03:30.308Z,951
2017-03-02T13:04:25.525Z,951
2017-03-02T13:05:23.580Z,951
2017-03-02T13:06:27.562Z,951
2017-03-02T13:07:27.667Z,951
2017-03-02T13:08:26.994Z,951
2017-03-02T13:09:21.862Z,951
2017-03-02T13:10:26.774Z,951
2017-03-02T13:11:36.672Z,951
2017-03-02T13:12:25.186Z,951
2017-03-02T13:13:29.762Z,951
2017-03-02T13:14:29.679Z,951
2017-03-02T13:15:29.655Z,951
2017-03-02T13:16:29.448Z,951
2017-03-02T13:17:32.471Z,951
2017-03-02T13:18:37.666Z,951
2017-03-02T13:22:29.097Z,951
2017-03-02T13:23:28.665Z,951
2017-03-02T13:24:28.724Z,951
2017-03-02T13:25:30.311Z,951
2017-03-02T13:26:22.340Z,951
2017-03-02T13:27:32.406Z,951
2017-03-02T13:28:21.241Z,951
2017-03-02T13:29:34.348Z,951
2017-03-02T13:30:28.284Z,951
2017-03-02T13:31:26.346Z,951
2017-03-02T13:32:30.191Z,951
2017-03-02T13:33:27.792Z,951
2017-03-02T13:34:38.054Z,951
2017-03-02T13:35:22.275Z,951
2017-03-02T13:36:25.465Z,951
2017-03-02T13:37:26.749Z,951
2017-03-02T13:38:27.995Z,951
2017-03-02T13:39:22.535Z,951
2017-03-02T13:40:33.036Z,951
2017-03-02T13:41:28.119Z,951
2017-03-02T13:42:22.314Z,951
2017-03-02T13:43:28.212Z,951
2017-03-02T13:44:21.944Z,951
2017-03-02T13:45:27.621Z,951
2017-03-02T13:46:25.136Z,951
2017-03-02T13:47:29.180Z,951
2017-03-02T13:48:25.667Z,951
2017-03-02T13:49:26.837Z,951
2017-03-02T13:50:22.745Z,951
2017-03-02T13:51:27.008Z,951
2017-03-02T13:52:29.049Z,951
2017-03-02T13:53:29.672Z,951
2017-03-02T13:54:32.618Z,951
2017-03-02T13:55:40.880Z,951
2017-03-02T13:56:25.404Z,951